首页
METAR-TAF:

METAR-TAF

机场 :

皮阿尔科国际机场

西班牙港, 特立尼达岛, 千里達及托巴哥

纬度: 10-37N, 经度: 061-21W, 海拔: 12米

当前天气观测

该预报发布于14分钟前的03:00 UTC
静风
温度 24°C
湿度 94%
气压 1016 hPa
能见度10公里或以上
散云层高于1600英尺

METAR: TTPP 250300Z 00000KT 9999 SCT016 24/23 Q1016 NOSIG

时间: 23:14 (03:14 UTC)

预报

该预报发布于5小时和14分钟前的22:00 UTC
预报有效从25日的 00点(UTC)到 25日的 24点(UTC)
风速节,风向
能见度10公里或以上
少量云层高于1600英尺
成为
从 25日的 12点(UTC)到 25日的 14点(UTC)
风速13节,风向东转东南
少量云层高于2200英尺

TAF: TTPP 242200Z 2500/2524 00000KT 9999 FEW016 BECMG 2512/2514 11013KT FEW022

超过4000个机场的气象观测和天气预报(METAR&TAF报告)。

可查询的气象台以黄色和红色小点在地图上表示。

将鼠标移到小点上方,可查看气象台名称。

然后点击查看天气观测和预报。

如需切换地图:点击带黑十字的绿色按钮放大地图;点击带横线的绿色按钮缩小地图;或者点击绿色箭头查看邻近地区的地图。


METAR-TAF: